sensor_id;sensor_type;location;lat;lon;timestamp;temperature;humidity
46043;DHT22;32533;-33.854;18.542;2022-07-29T00:00:36;17.50;84.10
46043;DHT22;32533;-33.854;18.542;2022-07-29T00:03:03;17.50;84.10
46043;DHT22;32533;-33.854;18.542;2022-07-29T00:05:30;17.50;83.90
46043;DHT22;32533;-33.854;18.542;2022-07-29T00:07:56;17.40;83.80
46043;DHT22;32533;-33.854;18.542;2022-07-29T00:10:23;17.40;83.90
46043;DHT22;32533;-33.854;18.542;2022-07-29T00:12:49;17.40;83.80
46043;DHT22;32533;-33.854;18.542;2022-07-29T00:15:16;17.30;83.80
46043;DHT22;32533;-33.854;18.542;2022-07-29T00:17:42;17.30;83.80
46043;DHT22;32533;-33.854;18.542;2022-07-29T00:20:09;17.30;83.90
46043;DHT22;32533;-33.854;18.542;2022-07-29T00:22:39;17.30;83.90
46043;DHT22;32533;-33.854;18.542;2022-07-29T00:25:06;17.30;84.10
46043;DHT22;32533;-33.854;18.542;2022-07-29T00:27:34;17.30;84.20
46043;DHT22;32533;-33.854;18.542;2022-07-29T00:30:01;17.30;84.30
46043;DHT22;32533;-33.854;18.542;2022-07-29T00:32:27;17.30;84.40
46043;DHT22;32533;-33.854;18.542;2022-07-29T00:34:54;17.30;84.50
46043;DHT22;32533;-33.854;18.542;2022-07-29T00:37:39;17.30;84.50
46043;DHT22;32533;-33.854;18.542;2022-07-29T00:40:06;17.30;84.40
46043;DHT22;32533;-33.854;18.542;2022-07-29T00:42:42;17.30;84.20
46043;DHT22;32533;-33.854;18.542;2022-07-29T00:45:09;17.30;84.60
46043;DHT22;32533;-33.854;18.542;2022-07-29T00:47:36;17.30;84.70
46043;DHT22;32533;-33.854;18.542;2022-07-29T00:50:04;17.30;84.90
46043;DHT22;32533;-33.854;18.542;2022-07-29T00:52:32;17.30;85.10
46043;DHT22;32533;-33.854;18.542;2022-07-29T00:54:58;17.20;85.10
46043;DHT22;32533;-33.854;18.542;2022-07-29T00:57:25;17.20;85.30
46043;DHT22;32533;-33.854;18.542;2022-07-29T00:59:51;17.20;85.40
46043;DHT22;32533;-33.854;18.542;2022-07-29T01:02:18;17.20;85.60
46043;DHT22;32533;-33.854;18.542;2022-07-29T01:04:44;17.20;86.30
46043;DHT22;32533;-33.854;18.542;2022-07-29T01:07:11;17.20;85.70
46043;DHT22;32533;-33.854;18.542;2022-07-29T01:09:38;17.20;85.70
46043;DHT22;32533;-33.854;18.542;2022-07-29T01:12:05;17.20;85.60
46043;DHT22;32533;-33.854;18.542;2022-07-29T01:14:32;17.20;85.50
46043;DHT22;32533;-33.854;18.542;2022-07-29T01:30:25;17.10;85.10
46043;DHT22;32533;-33.854;18.542;2022-07-29T01:32:56;17.10;85.00
46043;DHT22;32533;-33.854;18.542;2022-07-29T01:35:43;17.10;84.90
46043;DHT22;32533;-33.854;18.542;2022-07-29T01:38:19;17.10;84.70
46043;DHT22;32533;-33.854;18.542;2022-07-29T01:41:06;17.10;84.60
46043;DHT22;32533;-33.854;18.542;2022-07-29T01:43:44;17.10;84.50
46043;DHT22;32533;-33.854;18.542;2022-07-29T01:46:31;17.10;84.40
46043;DHT22;32533;-33.854;18.542;2022-07-29T01:49:11;17.00;84.30
46043;DHT22;32533;-33.854;18.542;2022-07-29T01:51:51;17.00;84.40
46043;DHT22;32533;-33.854;18.542;2022-07-29T01:54:32;17.00;84.40
46043;DHT22;32533;-33.854;18.542;2022-07-29T01:57:01;17.10;84.70
46043;DHT22;32533;-33.854;18.542;2022-07-29T01:59:29;17.00;84.60
46043;DHT22;32533;-33.854;18.542;2022-07-29T02:01:58;17.00;84.40
46043;DHT22;32533;-33.854;18.542;2022-07-29T02:04:26;17.00;84.20
46043;DHT22;32533;-33.854;18.542;2022-07-29T02:06:57;17.00;84.00
46043;DHT22;32533;-33.854;18.542;2022-07-29T02:09:25;17.00;84.10
46043;DHT22;32533;-33.854;18.542;2022-07-29T02:11:53;17.00;84.00
46043;DHT22;32533;-33.854;18.542;2022-07-29T02:14:22;17.00;84.00
46043;DHT22;32533;-33.854;18.542;2022-07-29T02:16:52;17.00;84.00
46043;DHT22;32533;-33.854;18.542;2022-07-29T02:19:22;16.90;83.80
46043;DHT22;32533;-33.854;18.542;2022-07-29T02:21:52;17.00;83.90
46043;DHT22;32533;-33.854;18.542;2022-07-29T02:24:20;16.90;83.80
46043;DHT22;32533;-33.854;18.542;2022-07-29T02:26:48;17.00;84.10
46043;DHT22;32533;-33.854;18.542;2022-07-29T02:29:15;16.90;84.10
46043;DHT22;32533;-33.854;18.542;2022-07-29T02:31:44;16.90;84.10
46043;DHT22;32533;-33.854;18.542;2022-07-29T02:34:13;16.90;84.20
46043;DHT22;32533;-33.854;18.542;2022-07-29T02:36:41;16.90;84.50
46043;DHT22;32533;-33.854;18.542;2022-07-29T02:39:09;16.90;84.50
46043;DHT22;32533;-33.854;18.542;2022-07-29T02:41:52;16.90;84.60
46043;DHT22;32533;-33.854;18.542;2022-07-29T02:44:23;16.90;84.60
46043;DHT22;32533;-33.854;18.542;2022-07-29T02:47:12;16.90;84.60
46043;DHT22;32533;-33.854;18.542;2022-07-29T02:50:04;16.90;84.40
46043;DHT22;32533;-33.854;18.542;2022-07-29T02:55:37;16.90;84.70
46043;DHT22;32533;-33.854;18.542;2022-07-29T03:00:41;16.90;85.40
46043;DHT22;32533;-33.854;18.542;2022-07-29T03:03:12;17.00;85.70
46043;DHT22;32533;-33.854;18.542;2022-07-29T03:05:39;16.90;85.50
46043;DHT22;32533;-33.854;18.542;2022-07-29T03:08:09;16.90;85.20
46043;DHT22;32533;-33.854;18.542;2022-07-29T03:10:42;16.90;85.30
46043;DHT22;32533;-33.854;18.542;2022-07-29T03:13:10;16.80;85.20
46043;DHT22;32533;-33.854;18.542;2022-07-29T03:15:38;16.80;85.10
46043;DHT22;32533;-33.854;18.542;2022-07-29T03:18:06;16.80;84.80
46043;DHT22;32533;-33.854;18.542;2022-07-29T03:20:34;16.70;84.70
46043;DHT22;32533;-33.854;18.542;2022-07-29T03:23:00;16.70;84.60
46043;DHT22;32533;-33.854;18.542;2022-07-29T03:25:27;16.70;84.60
46043;DHT22;32533;-33.854;18.542;2022-07-29T03:27:53;16.70;84.60
46043;DHT22;32533;-33.854;18.542;2022-07-29T03:30:20;16.70;84.50
46043;DHT22;32533;-33.854;18.542;2022-07-29T03:32:46;16.70;84.50
46043;DHT22;32533;-33.854;18.542;2022-07-29T03:35:13;16.70;84.60
46043;DHT22;32533;-33.854;18.542;2022-07-29T03:37:40;16.70;84.80
46043;DHT22;32533;-33.854;18.542;2022-07-29T03:40:08;16.70;84.90
46043;DHT22;32533;-33.854;18.542;2022-07-29T03:42:38;16.70;85.00
46043;DHT22;32533;-33.854;18.542;2022-07-29T03:45:12;16.70;85.10
46043;DHT22;32533;-33.854;18.542;2022-07-29T03:47:42;16.70;85.20
46043;DHT22;32533;-33.854;18.542;2022-07-29T03:50:12;16.70;85.00
46043;DHT22;32533;-33.854;18.542;2022-07-29T03:52:40;16.70;84.90
46043;DHT22;32533;-33.854;18.542;2022-07-29T03:55:08;16.70;85.00
46043;DHT22;32533;-33.854;18.542;2022-07-29T03:57:35;16.70;84.80
46043;DHT22;32533;-33.854;18.542;2022-07-29T04:00:04;16.60;84.70
46043;DHT22;32533;-33.854;18.542;2022-07-29T04:02:32;16.60;84.80
46043;DHT22;32533;-33.854;18.542;2022-07-29T04:04:59;16.60;84.70
46043;DHT22;32533;-33.854;18.542;2022-07-29T04:07:25;16.60;84.80
46043;DHT22;32533;-33.854;18.542;2022-07-29T04:09:52;16.50;84.80
46043;DHT22;32533;-33.854;18.542;2022-07-29T04:12:22;16.50;85.40
46043;DHT22;32533;-33.854;18.542;2022-07-29T04:14:49;16.60;86.00
46043;DHT22;32533;-33.854;18.542;2022-07-29T04:17:16;16.60;85.90
46043;DHT22;32533;-33.854;18.542;2022-07-29T04:19:42;16.60;86.20
46043;DHT22;32533;-33.854;18.542;2022-07-29T04:22:09;16.60;86.40
46043;DHT22;32533;-33.854;18.542;2022-07-29T04:24:35;16.60;86.70
46043;DHT22;32533;-33.854;18.542;2022-07-29T04:27:02;16.60;86.80
46043;DHT22;32533;-33.854;18.542;2022-07-29T04:29:28;16.60;86.90
46043;DHT22;32533;-33.854;18.542;2022-07-29T04:31:55;16.60;86.90
46043;DHT22;32533;-33.854;18.542;2022-07-29T04:34:21;16.50;86.80
46043;DHT22;32533;-33.854;18.542;2022-07-29T04:36:48;16.60;86.90
46043;DHT22;32533;-33.854;18.542;2022-07-29T04:39:14;16.60;86.90
46043;DHT22;32533;-33.854;18.542;2022-07-29T04:41:41;16.60;86.90
46043;DHT22;32533;-33.854;18.542;2022-07-29T04:44:07;16.60;86.90
46043;DHT22;32533;-33.854;18.542;2022-07-29T04:46:34;16.60;86.90
46043;DHT22;32533;-33.854;18.542;2022-07-29T04:49:02;16.50;86.70
46043;DHT22;32533;-33.854;18.542;2022-07-29T04:51:28;16.60;86.90
46043;DHT22;32533;-33.854;18.542;2022-07-29T04:53:55;16.60;87.10
46043;DHT22;32533;-33.854;18.542;2022-07-29T04:56:21;16.60;87.10
46043;DHT22;32533;-33.854;18.542;2022-07-29T04:58:48;16.60;86.80
46043;DHT22;32533;-33.854;18.542;2022-07-29T05:01:14;16.60;87.10
46043;DHT22;32533;-33.854;18.542;2022-07-29T05:03:41;16.60;87.30
46043;DHT22;32533;-33.854;18.542;2022-07-29T05:06:08;16.60;87.30
46043;DHT22;32533;-33.854;18.542;2022-07-29T05:08:34;16.60;87.10
46043;DHT22;32533;-33.854;18.542;2022-07-29T05:11:00;16.60;86.90
46043;DHT22;32533;-33.854;18.542;2022-07-29T05:13:27;16.60;86.80
46043;DHT22;32533;-33.854;18.542;2022-07-29T05:15:54;16.50;86.70
46043;DHT22;32533;-33.854;18.542;2022-07-29T05:18:21;16.50;86.60
46043;DHT22;32533;-33.854;18.542;2022-07-29T05:20:47;16.50;86.70
46043;DHT22;32533;-33.854;18.542;2022-07-29T05:23:14;16.50;86.80
46043;DHT22;32533;-33.854;18.542;2022-07-29T05:25:41;16.50;86.90
46043;DHT22;32533;-33.854;18.542;2022-07-29T05:28:08;16.50;86.90
46043;DHT22;32533;-33.854;18.542;2022-07-29T05:30:34;16.50;86.70
46043;DHT22;32533;-33.854;18.542;2022-07-29T05:33:01;16.50;86.70
46043;DHT22;32533;-33.854;18.542;2022-07-29T05:35:27;16.50;86.60
46043;DHT22;32533;-33.854;18.542;2022-07-29T05:37:54;16.50;86.60
46043;DHT22;32533;-33.854;18.542;2022-07-29T05:40:20;16.50;86.60
46043;DHT22;32533;-33.854;18.542;2022-07-29T05:42:47;16.50;86.50
46043;DHT22;32533;-33.854;18.542;2022-07-29T05:45:13;16.50;86.60
46043;DHT22;32533;-33.854;18.542;2022-07-29T05:47:40;16.50;86.80
46043;DHT22;32533;-33.854;18.542;2022-07-29T05:50:07;16.50;87.60
46043;DHT22;32533;-33.854;18.542;2022-07-29T05:52:33;16.60;87.10
46043;DHT22;32533;-33.854;18.542;2022-07-29T05:55:00;16.60;87.10
46043;DHT22;32533;-33.854;18.542;2022-07-29T05:57:30;16.60;87.10
46043;DHT22;32533;-33.854;18.542;2022-07-29T05:59:56;16.50;87.10
46043;DHT22;32533;-33.854;18.542;2022-07-29T06:02:23;16.60;87.10
46043;DHT22;32533;-33.854;18.542;2022-07-29T06:04:50;16.60;87.00
46043;DHT22;32533;-33.854;18.542;2022-07-29T06:07:16;16.60;87.00
46043;DHT22;32533;-33.854;18.542;2022-07-29T06:09:43;16.50;87.10
46043;DHT22;32533;-33.854;18.542;2022-07-29T06:12:09;16.50;87.10
46043;DHT22;32533;-33.854;18.542;2022-07-29T06:14:36;16.50;87.30
46043;DHT22;32533;-33.854;18.542;2022-07-29T06:17:04;16.50;87.40
46043;DHT22;32533;-33.854;18.542;2022-07-29T06:19:33;16.50;87.70
46043;DHT22;32533;-33.854;18.542;2022-07-29T06:22:00;16.50;88.10
46043;DHT22;32533;-33.854;18.542;2022-07-29T06:24:26;16.60;88.70
46043;DHT22;32533;-33.854;18.542;2022-07-29T06:26:53;16.60;88.90
46043;DHT22;32533;-33.854;18.542;2022-07-29T06:29:19;16.60;89.20
46043;DHT22;32533;-33.854;18.542;2022-07-29T06:31:46;16.60;89.50
46043;DHT22;32533;-33.854;18.542;2022-07-29T06:34:12;16.60;89.70
46043;DHT22;32533;-33.854;18.542;2022-07-29T06:36:39;16.60;89.90
46043;DHT22;32533;-33.854;18.542;2022-07-29T06:39:06;16.70;90.10
46043;DHT22;32533;-33.854;18.542;2022-07-29T06:41:34;16.70;90.30
46043;DHT22;32533;-33.854;18.542;2022-07-29T06:44:02;16.70;90.40
46043;DHT22;32533;-33.854;18.542;2022-07-29T06:46:28;16.60;90.60
46043;DHT22;32533;-33.854;18.542;2022-07-29T06:48:55;16.60;90.70
46043;DHT22;32533;-33.854;18.542;2022-07-29T06:51:22;16.60;90.80
46043;DHT22;32533;-33.854;18.542;2022-07-29T06:53:48;16.60;90.70
46043;DHT22;32533;-33.854;18.542;2022-07-29T06:56:15;16.60;90.60
46043;DHT22;32533;-33.854;18.542;2022-07-29T06:58:41;16.50;90.40
46043;DHT22;32533;-33.854;18.542;2022-07-29T07:01:08;16.50;90.40
46043;DHT22;32533;-33.854;18.542;2022-07-29T07:03:34;16.50;90.50
46043;DHT22;32533;-33.854;18.542;2022-07-29T07:06:01;16.50;90.80
46043;DHT22;32533;-33.854;18.542;2022-07-29T07:08:27;16.50;91.20
46043;DHT22;32533;-33.854;18.542;2022-07-29T07:10:54;16.50;91.40
46043;DHT22;32533;-33.854;18.542;2022-07-29T07:13:21;16.50;91.90
46043;DHT22;32533;-33.854;18.542;2022-07-29T07:15:48;16.40;91.60
46043;DHT22;32533;-33.854;18.542;2022-07-29T07:18:15;16.40;91.60
46043;DHT22;32533;-33.854;18.542;2022-07-29T07:20:42;16.40;91.60
46043;DHT22;32533;-33.854;18.542;2022-07-29T07:23:08;16.40;91.60
46043;DHT22;32533;-33.854;18.542;2022-07-29T07:25:35;16.40;91.60
46043;DHT22;32533;-33.854;18.542;2022-07-29T07:28:02;16.40;91.60
46043;DHT22;32533;-33.854;18.542;2022-07-29T07:30:29;16.40;91.60
46043;DHT22;32533;-33.854;18.542;2022-07-29T07:32:55;16.40;91.60
46043;DHT22;32533;-33.854;18.542;2022-07-29T07:35:22;16.40;91.60
46043;DHT22;32533;-33.854;18.542;2022-07-29T07:37:48;16.40;91.70
46043;DHT22;32533;-33.854;18.542;2022-07-29T07:40:15;16.40;91.70
46043;DHT22;32533;-33.854;18.542;2022-07-29T07:42:41;16.40;91.70
46043;DHT22;32533;-33.854;18.542;2022-07-29T07:45:09;16.50;91.70
46043;DHT22;32533;-33.854;18.542;2022-07-29T07:47:36;16.50;91.80
46043;DHT22;32533;-33.854;18.542;2022-07-29T07:50:05;16.50;91.80
46043;DHT22;32533;-33.854;18.542;2022-07-29T07:52:32;16.50;91.80
46043;DHT22;32533;-33.854;18.542;2022-07-29T07:54:59;16.50;91.80
46043;DHT22;32533;-33.854;18.542;2022-07-29T07:57:26;16.50;91.80
46043;DHT22;32533;-33.854;18.542;2022-07-29T07:59:53;16.50;91.90
46043;DHT22;32533;-33.854;18.542;2022-07-29T08:02:19;16.50;91.90
46043;DHT22;32533;-33.854;18.542;2022-07-29T08:04:46;16.50;91.90
46043;DHT22;32533;-33.854;18.542;2022-07-29T08:07:12;16.50;91.90
46043;DHT22;32533;-33.854;18.542;2022-07-29T08:09:40;16.50;91.90
46043;DHT22;32533;-33.854;18.542;2022-07-29T08:12:07;16.50;92.00
46043;DHT22;32533;-33.854;18.542;2022-07-29T08:14:34;16.60;92.10
46043;DHT22;32533;-33.854;18.542;2022-07-29T08:17:00;16.50;92.10
46043;DHT22;32533;-33.854;18.542;2022-07-29T08:19:27;16.60;92.20
46043;DHT22;32533;-33.854;18.542;2022-07-29T08:21:53;16.60;92.50
46043;DHT22;32533;-33.854;18.542;2022-07-29T08:24:21;16.60;92.20
46043;DHT22;32533;-33.854;18.542;2022-07-29T08:27:06;16.50;92.20
46043;DHT22;32533;-33.854;18.542;2022-07-29T08:29:32;16.60;92.20
46043;DHT22;32533;-33.854;18.542;2022-07-29T08:31:59;16.60;92.20
46043;DHT22;32533;-33.854;18.542;2022-07-29T08:34:26;16.60;92.20
46043;DHT22;32533;-33.854;18.542;2022-07-29T08:36:52;16.60;92.20
46043;DHT22;32533;-33.854;18.542;2022-07-29T08:39:19;16.60;92.20
46043;DHT22;32533;-33.854;18.542;2022-07-29T08:41:45;16.60;92.10
46043;DHT22;32533;-33.854;18.542;2022-07-29T08:44:22;16.50;92.10
46043;DHT22;32533;-33.854;18.542;2022-07-29T08:46:49;16.60;92.10
46043;DHT22;32533;-33.854;18.542;2022-07-29T08:49:16;16.60;92.10
46043;DHT22;32533;-33.854;18.542;2022-07-29T08:51:44;16.60;92.10
46043;DHT22;32533;-33.854;18.542;2022-07-29T08:54:11;16.70;92.10
46043;DHT22;32533;-33.854;18.542;2022-07-29T08:56:39;16.60;92.00
46043;DHT22;32533;-33.854;18.542;2022-07-29T08:59:07;16.70;92.00
46043;DHT22;32533;-33.854;18.542;2022-07-29T09:01:37;16.70;92.00
46043;DHT22;32533;-33.854;18.542;2022-07-29T09:04:09;16.70;92.00
46043;DHT22;32533;-33.854;18.542;2022-07-29T09:06:39;16.70;91.90
46043;DHT22;32533;-33.854;18.542;2022-07-29T09:09:08;16.70;91.90
46043;DHT22;32533;-33.854;18.542;2022-07-29T09:11:35;16.70;91.90
46043;DHT22;32533;-33.854;18.542;2022-07-29T09:14:02;16.70;91.90
46043;DHT22;32533;-33.854;18.542;2022-07-29T09:19:31;16.70;91.80
46043;DHT22;32533;-33.854;18.542;2022-07-29T09:22:00;16.80;91.90
46043;DHT22;32533;-33.854;18.542;2022-07-29T09:27:11;16.80;91.90
46043;DHT22;32533;-33.854;18.542;2022-07-29T09:29:38;16.80;92.00
46043;DHT22;32533;-33.854;18.542;2022-07-29T09:32:09;16.80;92.00
46043;DHT22;32533;-33.854;18.542;2022-07-29T09:34:39;16.80;92.00
46043;DHT22;32533;-33.854;18.542;2022-07-29T09:37:05;16.90;92.10
46043;DHT22;32533;-33.854;18.542;2022-07-29T09:39:39;16.90;92.10
46043;DHT22;32533;-33.854;18.542;2022-07-29T09:42:28;16.90;92.00
46043;DHT22;32533;-33.854;18.542;2022-07-29T09:44:55;16.90;92.00
46043;DHT22;32533;-33.854;18.542;2022-07-29T09:47:21;16.90;92.00
46043;DHT22;32533;-33.854;18.542;2022-07-29T09:49:55;16.90;92.10
46043;DHT22;32533;-33.854;18.542;2022-07-29T09:52:25;16.90;92.10
46043;DHT22;32533;-33.854;18.542;2022-07-29T09:54:51;16.90;92.10
46043;DHT22;32533;-33.854;18.542;2022-07-29T09:57:27;16.90;92.20
46043;DHT22;32533;-33.854;18.542;2022-07-29T10:02:28;16.90;92.60
46043;DHT22;32533;-33.854;18.542;2022-07-29T10:04:55;17.00;92.50
46043;DHT22;32533;-33.854;18.542;2022-07-29T10:07:22;17.00;92.50
46043;DHT22;32533;-33.854;18.542;2022-07-29T10:09:56;17.00;92.50
46043;DHT22;32533;-33.854;18.542;2022-07-29T10:12:23;16.90;92.40
46043;DHT22;32533;-33.854;18.542;2022-07-29T10:14:51;17.00;92.30
46043;DHT22;32533;-33.854;18.542;2022-07-29T10:17:18;17.00;92.30
46043;DHT22;32533;-33.854;18.542;2022-07-29T10:19:45;17.00;92.30
46043;DHT22;32533;-33.854;18.542;2022-07-29T10:22:12;17.00;92.20
46043;DHT22;32533;-33.854;18.542;2022-07-29T10:24:38;17.00;92.10
46043;DHT22;32533;-33.854;18.542;2022-07-29T10:27:07;17.00;92.00
46043;DHT22;32533;-33.854;18.542;2022-07-29T10:29:34;17.00;91.90
46043;DHT22;32533;-33.854;18.542;2022-07-29T10:43:28;17.10;91.40
46043;DHT22;32533;-33.854;18.542;2022-07-29T10:45:57;17.20;91.30
46043;DHT22;32533;-33.854;18.542;2022-07-29T10:48:24;17.30;91.20
46043;DHT22;32533;-33.854;18.542;2022-07-29T10:53:47;17.40;90.70
46043;DHT22;32533;-33.854;18.542;2022-07-29T10:56:30;17.50;90.10
46043;DHT22;32533;-33.854;18.542;2022-07-29T11:01:47;17.70;88.00
46043;DHT22;32533;-33.854;18.542;2022-07-29T11:04:16;17.70;86.70
46043;DHT22;32533;-33.854;18.542;2022-07-29T11:09:30;17.90;85.20
46043;DHT22;32533;-33.854;18.542;2022-07-29T11:11:57;18.00;85.20
46043;DHT22;32533;-33.854;18.542;2022-07-29T11:17:18;18.10;84.10
46043;DHT22;32533;-33.854;18.542;2022-07-29T11:19:44;18.10;83.50
46043;DHT22;32533;-33.854;18.542;2022-07-29T11:22:12;18.10;82.90
46043;DHT22;32533;-33.854;18.542;2022-07-29T11:25:15;18.10;82.40
46043;DHT22;32533;-33.854;18.542;2022-07-29T11:27:42;18.10;81.80
46043;DHT22;32533;-33.854;18.542;2022-07-29T11:30:10;18.10;81.50
46043;DHT22;32533;-33.854;18.542;2022-07-29T11:32:39;18.10;81.20
46043;DHT22;32533;-33.854;18.542;2022-07-29T11:35:20;18.10;80.90
46043;DHT22;32533;-33.854;18.542;2022-07-29T11:43:54;18.20;79.50
46043;DHT22;32533;-33.854;18.542;2022-07-29T11:46:43;18.20;79.20
46043;DHT22;32533;-33.854;18.542;2022-07-29T11:49:11;18.30;79.20
46043;DHT22;32533;-33.854;18.542;2022-07-29T11:51:39;18.30;78.70
46043;DHT22;32533;-33.854;18.542;2022-07-29T11:54:08;18.40;78.90
46043;DHT22;32533;-33.854;18.542;2022-07-29T11:56:39;18.40;78.30
46043;DHT22;32533;-33.854;18.542;2022-07-29T11:59:10;18.40;78.00
46043;DHT22;32533;-33.854;18.542;2022-07-29T12:01:36;18.50;77.50
46043;DHT22;32533;-33.854;18.542;2022-07-29T12:04:06;18.50;77.00
46043;DHT22;32533;-33.854;18.542;2022-07-29T12:06:34;18.50;76.60
46043;DHT22;32533;-33.854;18.542;2022-07-29T12:09:06;18.60;76.10
46043;DHT22;32533;-33.854;18.542;2022-07-29T12:11:33;18.50;75.60
46043;DHT22;32533;-33.854;18.542;2022-07-29T12:13:59;18.60;75.30
46043;DHT22;32533;-33.854;18.542;2022-07-29T12:16:35;18.70;75.50
46043;DHT22;32533;-33.854;18.542;2022-07-29T12:19:04;18.70;75.40
46043;DHT22;32533;-33.854;18.542;2022-07-29T12:21:50;18.70;75.00
46043;DHT22;32533;-33.854;18.542;2022-07-29T12:24:17;18.70;74.70
46043;DHT22;32533;-33.854;18.542;2022-07-29T12:26:55;18.70;74.10
46043;DHT22;32533;-33.854;18.542;2022-07-29T12:29:23;18.70;73.30
46043;DHT22;32533;-33.854;18.542;2022-07-29T12:31:53;18.70;72.60
46043;DHT22;32533;-33.854;18.542;2022-07-29T12:34:22;18.70;72.30
46043;DHT22;32533;-33.854;18.542;2022-07-29T12:36:49;18.70;72.00
46043;DHT22;32533;-33.854;18.542;2022-07-29T12:39:17;18.80;72.00
46043;DHT22;32533;-33.854;18.542;2022-07-29T12:41:44;18.80;71.50
46043;DHT22;32533;-33.854;18.542;2022-07-29T12:44:11;18.80;71.40
46043;DHT22;32533;-33.854;18.542;2022-07-29T12:46:37;18.80;71.40
46043;DHT22;32533;-33.854;18.542;2022-07-29T12:49:04;18.80;71.60
46043;DHT22;32533;-33.854;18.542;2022-07-29T12:51:35;18.80;72.20
46043;DHT22;32533;-33.854;18.542;2022-07-29T12:54:13;18.90;72.20
46043;DHT22;32533;-33.854;18.542;2022-07-29T12:56:42;18.90;72.10
46043;DHT22;32533;-33.854;18.542;2022-07-29T12:59:26;18.90;72.30
46043;DHT22;32533;-33.854;18.542;2022-07-29T13:01:53;18.90;73.50
46043;DHT22;32533;-33.854;18.542;2022-07-29T13:04:31;19.00;72.60
46043;DHT22;32533;-33.854;18.542;2022-07-29T13:07:03;19.00;72.00
46043;DHT22;32533;-33.854;18.542;2022-07-29T13:09:42;19.00;71.70
46043;DHT22;32533;-33.854;18.542;2022-07-29T13:12:11;19.00;71.30
46043;DHT22;32533;-33.854;18.542;2022-07-29T13:14:43;19.00;70.70
46043;DHT22;32533;-33.854;18.542;2022-07-29T13:19:41;19.00;70.20
46043;DHT22;32533;-33.854;18.542;2022-07-29T13:22:16;18.90;70.10
46043;DHT22;32533;-33.854;18.542;2022-07-29T13:27:24;18.90;70.20
46043;DHT22;32533;-33.854;18.542;2022-07-29T13:29:51;18.90;70.00
46043;DHT22;32533;-33.854;18.542;2022-07-29T13:32:22;18.80;69.20
46043;DHT22;32533;-33.854;18.542;2022-07-29T13:34:50;18.80;69.40
46043;DHT22;32533;-33.854;18.542;2022-07-29T13:37:16;18.80;69.70
46043;DHT22;32533;-33.854;18.542;2022-07-29T13:39:43;18.80;69.90
46043;DHT22;32533;-33.854;18.542;2022-07-29T13:42:10;18.80;69.60
46043;DHT22;32533;-33.854;18.542;2022-07-29T13:44:39;18.80;69.20
46043;DHT22;32533;-33.854;18.542;2022-07-29T13:47:07;18.80;69.20
46043;DHT22;32533;-33.854;18.542;2022-07-29T13:49:34;18.70;69.90
46043;DHT22;32533;-33.854;18.542;2022-07-29T13:52:02;18.70;71.00
46043;DHT22;32533;-33.854;18.542;2022-07-29T13:54:29;18.70;71.90
46043;DHT22;32533;-33.854;18.542;2022-07-29T13:56:55;18.70;72.40
46043;DHT22;32533;-33.854;18.542;2022-07-29T13:59:22;18.60;72.40
46043;DHT22;32533;-33.854;18.542;2022-07-29T14:01:48;18.50;71.80
46043;DHT22;32533;-33.854;18.542;2022-07-29T14:04:15;18.50;71.70
46043;DHT22;32533;-33.854;18.542;2022-07-29T14:06:42;18.40;71.60
46043;DHT22;32533;-33.854;18.542;2022-07-29T14:09:08;18.40;71.60
46043;DHT22;32533;-33.854;18.542;2022-07-29T14:11:35;18.40;71.50
46043;DHT22;32533;-33.854;18.542;2022-07-29T14:14:04;18.30;71.20
46043;DHT22;32533;-33.854;18.542;2022-07-29T14:16:31;18.30;71.00
46043;DHT22;32533;-33.854;18.542;2022-07-29T14:19:01;18.20;70.80
46043;DHT22;32533;-33.854;18.542;2022-07-29T14:21:28;18.20;70.70
46043;DHT22;32533;-33.854;18.542;2022-07-29T14:23:54;18.20;70.50
46043;DHT22;32533;-33.854;18.542;2022-07-29T14:26:22;18.10;70.10
46043;DHT22;32533;-33.854;18.542;2022-07-29T14:28:49;18.10;69.80
46043;DHT22;32533;-33.854;18.542;2022-07-29T14:31:16;18.00;69.80
46043;DHT22;32533;-33.854;18.542;2022-07-29T14:33:42;18.00;70.40
46043;DHT22;32533;-33.854;18.542;2022-07-29T14:36:09;18.00;71.40
46043;DHT22;32533;-33.854;18.542;2022-07-29T14:38:36;18.00;71.70
46043;DHT22;32533;-33.854;18.542;2022-07-29T14:41:04;18.00;71.90
46043;DHT22;32533;-33.854;18.542;2022-07-29T14:43:30;18.00;72.10
46043;DHT22;32533;-33.854;18.542;2022-07-29T14:45:57;18.00;71.90
46043;DHT22;32533;-33.854;18.542;2022-07-29T14:48:23;18.00;71.60
46043;DHT22;32533;-33.854;18.542;2022-07-29T14:50:49;18.00;71.50
46043;DHT22;32533;-33.854;18.542;2022-07-29T14:53:16;17.90;71.60
46043;DHT22;32533;-33.854;18.542;2022-07-29T14:55:44;17.90;71.90
46043;DHT22;32533;-33.854;18.542;2022-07-29T14:58:10;17.90;72.40
46043;DHT22;32533;-33.854;18.542;2022-07-29T15:00:37;17.90;73.00
46043;DHT22;32533;-33.854;18.542;2022-07-29T15:03:03;17.80;73.30
46043;DHT22;32533;-33.854;18.542;2022-07-29T15:05:31;17.80;73.60
46043;DHT22;32533;-33.854;18.542;2022-07-29T15:07:58;17.80;73.70
46043;DHT22;32533;-33.854;18.542;2022-07-29T15:10:25;17.80;73.90
46043;DHT22;32533;-33.854;18.542;2022-07-29T15:12:55;17.80;73.90
46043;DHT22;32533;-33.854;18.542;2022-07-29T15:15:22;17.80;73.90
46043;DHT22;32533;-33.854;18.542;2022-07-29T15:17:48;17.80;73.80
46043;DHT22;32533;-33.854;18.542;2022-07-29T15:20:14;17.80;73.70
46043;DHT22;32533;-33.854;18.542;2022-07-29T15:22:41;17.80;73.40
46043;DHT22;32533;-33.854;18.542;2022-07-29T15:25:09;17.80;73.10
46043;DHT22;32533;-33.854;18.542;2022-07-29T15:27:35;17.80;72.60
46043;DHT22;32533;-33.854;18.542;2022-07-29T15:30:03;17.70;72.30
46043;DHT22;32533;-33.854;18.542;2022-07-29T15:32:29;17.70;72.10
46043;DHT22;32533;-33.854;18.542;2022-07-29T15:34:56;17.70;72.00
46043;DHT22;32533;-33.854;18.542;2022-07-29T15:37:22;17.70;72.10
46043;DHT22;32533;-33.854;18.542;2022-07-29T15:40:08;17.60;72.20
46043;DHT22;32533;-33.854;18.542;2022-07-29T15:43:14;17.60;72.60
46043;DHT22;32533;-33.854;18.542;2022-07-29T15:46:21;17.60;73.20
46043;DHT22;32533;-33.854;18.542;2022-07-29T15:49:45;17.60;73.60
46043;DHT22;32533;-33.854;18.542;2022-07-29T15:52:52;17.60;73.80
46043;DHT22;32533;-33.854;18.542;2022-07-29T15:55:58;17.60;73.80
46043;DHT22;32533;-33.854;18.542;2022-07-29T15:59:04;17.60;74.00
46043;DHT22;32533;-33.854;18.542;2022-07-29T16:02:10;17.50;74.30
46043;DHT22;32533;-33.854;18.542;2022-07-29T16:05:16;17.50;74.30
46043;DHT22;32533;-33.854;18.542;2022-07-29T16:08:04;17.50;74.40
46043;DHT22;32533;-33.854;18.542;2022-07-29T16:10:31;17.50;74.60
46043;DHT22;32533;-33.854;18.542;2022-07-29T16:12:58;17.50;74.80
46043;DHT22;32533;-33.854;18.542;2022-07-29T16:15:24;17.50;75.00
46043;DHT22;32533;-33.854;18.542;2022-07-29T16:17:51;17.50;75.20